createdAt,value
2019-01-23T00:00:04.805Z,76.38
2019-01-23T00:02:43.362Z,76.29
2019-01-23T00:05:13.708Z,76.05
2019-01-23T00:07:44.059Z,75.91
2019-01-23T00:10:15.611Z,75.60
2019-01-23T00:12:46.137Z,75.61
2019-01-23T00:15:16.874Z,75.83
2019-01-23T00:17:47.193Z,75.84
2019-01-23T00:20:17.731Z,75.81
2019-01-23T00:22:51.840Z,75.79
2019-01-23T00:25:22.178Z,75.82
2019-01-23T00:27:52.542Z,75.82
2019-01-23T00:30:25.492Z,75.62
2019-01-23T00:32:56.036Z,75.64
2019-01-23T00:35:26.931Z,75.61
2019-01-23T00:37:58.273Z,75.30
2019-01-23T00:40:30.511Z,74.98
2019-01-23T00:43:01.140Z,75.30
2019-01-23T00:45:34.070Z,74.83
2019-01-23T00:48:04.523Z,74.57
2019-01-23T00:50:37.365Z,74.60
2019-01-23T00:53:09.802Z,74.28
2019-01-23T00:55:43.096Z,74.28
2019-01-23T00:58:13.629Z,74.70
2019-01-23T01:00:44.200Z,74.40
2019-01-23T01:03:14.734Z,74.52
2019-01-23T01:05:46.423Z,74.32
2019-01-23T01:08:16.766Z,74.00
2019-01-23T01:10:48.037Z,74.05
2019-01-23T01:13:22.318Z,74.05
2019-01-23T01:15:50.749Z,73.84
2019-01-23T01:18:21.400Z,74.06
2019-01-23T01:20:52.058Z,74.15
2019-01-23T01:23:22.495Z,74.12
2019-01-23T01:25:53.004Z,73.79
2019-01-23T01:28:23.581Z,73.65
2019-01-23T01:30:54.984Z,73.76
2019-01-23T01:33:27.410Z,73.60
2019-01-23T01:35:57.864Z,73.90
2019-01-23T01:38:29.566Z,73.92
2019-01-23T01:41:05.012Z,73.96
2019-01-23T01:43:35.355Z,73.59
2019-01-23T01:46:08.721Z,73.51
2019-01-23T01:48:40.936Z,73.40
2019-01-23T01:51:11.346Z,73.13
2019-01-23T01:53:47.299Z,73.52
2019-01-23T01:56:14.224Z,73.32
2019-01-23T01:58:44.875Z,73.32
2019-01-23T02:01:16.383Z,73.12
2019-01-23T02:03:48.864Z,73.03
2019-01-23T02:06:19.173Z,72.78
2019-01-23T02:08:50.929Z,73.02
2019-01-23T02:11:21.274Z,72.87
2019-01-23T02:13:53.683Z,72.77
2019-01-23T02:16:24.096Z,72.65
2019-01-23T02:18:55.658Z,72.43
2019-01-23T02:21:27.313Z,72.26
2019-01-23T02:24:00.002Z,72.41
2019-01-23T02:26:30.316Z,72.69
2019-01-23T02:29:01.758Z,72.71
2019-01-23T02:31:32.367Z,72.71
2019-01-23T02:34:13.542Z,72.54
2019-01-23T02:36:44.112Z,72.35
2019-01-23T02:39:15.365Z,72.11
2019-01-23T02:41:45.998Z,72.06
2019-01-23T02:44:16.781Z,72.24
2019-01-23T02:46:47.293Z,72.21
2019-01-23T02:49:19.078Z,72.04
2019-01-23T02:51:50.830Z,72.20
2019-01-23T02:54:26.422Z,71.83
2019-01-23T02:56:57.052Z,71.75
2019-01-23T02:59:29.748Z,71.81
2019-01-23T03:02:00.401Z,71.58
2019-01-23T03:04:33.337Z,71.22
2019-01-23T03:07:05.183Z,70.75
2019-01-23T03:09:35.509Z,71.03
2019-01-23T03:12:08.213Z,71.07
2019-01-23T03:14:39.340Z,70.66
2019-01-23T03:17:09.695Z,70.80
2019-01-23T03:19:41.118Z,70.58
2019-01-23T03:22:11.531Z,70.85
2019-01-23T03:24:42.333Z,70.37
2019-01-23T03:27:13.121Z,70.54
2019-01-23T03:29:45.004Z,70.24
2019-01-23T03:32:15.477Z,70.85
2019-01-23T03:34:45.872Z,70.79
2019-01-23T03:37:16.807Z,70.59
2019-01-23T03:39:47.115Z,70.56
2019-01-23T03:42:17.722Z,70.51
2019-01-23T03:44:48.126Z,70.00
2019-01-23T03:47:20.579Z,70.12
2019-01-23T03:49:51.159Z,70.06
2019-01-23T03:52:23.352Z,69.78
2019-01-23T03:54:55.268Z,69.95
2019-01-23T03:57:26.162Z,69.53
2019-01-23T03:59:56.543Z,70.08
2019-01-23T04:02:27.398Z,69.78
2019-01-23T04:04:58.160Z,69.86
2019-01-23T04:07:30.294Z,69.88
2019-01-23T04:10:02.631Z,69.98
2019-01-23T04:12:34.372Z,69.91
2019-01-23T04:15:06.793Z,70.19
2019-01-23T04:17:39.846Z,70.29
2019-01-23T04:20:13.522Z,69.57
2019-01-23T04:22:44.733Z,69.97
2019-01-23T04:25:15.746Z,70.03
2019-01-23T04:27:48.143Z,69.95
2019-01-23T04:30:22.790Z,70.16
2019-01-23T04:32:55.446Z,70.81
2019-01-23T04:35:28.332Z,70.81
2019-01-23T04:37:58.845Z,70.30
2019-01-23T04:40:29.415Z,70.15
2019-01-23T04:43:00.239Z,69.66
2019-01-23T04:45:33.255Z,70.04
2019-01-23T04:48:04.267Z,70.01
2019-01-23T04:50:53.504Z,69.89
2019-01-23T04:53:37.891Z,69.27
2019-01-23T04:56:11.186Z,69.59
2019-01-23T04:58:41.414Z,70.01
2019-01-23T05:01:11.920Z,70.21
2019-01-23T05:03:43.231Z,70.25
2019-01-23T05:06:13.816Z,70.45
2019-01-23T05:08:52.059Z,69.97
2019-01-23T05:11:22.746Z,69.69
2019-01-23T05:13:53.194Z,69.72
2019-01-23T05:16:28.135Z,70.21
2019-01-23T05:18:58.861Z,70.17
2019-01-23T05:21:29.834Z,70.57
2019-01-23T05:24:00.861Z,70.50
2019-01-23T05:26:32.754Z,70.21
2019-01-23T05:29:04.672Z,70.08
2019-01-23T05:31:35.093Z,69.90
2019-01-23T05:34:06.878Z,70.33
2019-01-23T05:36:37.483Z,70.69
2019-01-23T05:39:09.554Z,71.02
2019-01-23T05:41:39.867Z,70.98
2019-01-23T05:44:10.825Z,71.18
2019-01-23T05:46:41.233Z,71.67
2019-01-23T05:49:11.869Z,72.07
2019-01-23T05:51:42.179Z,72.59
2019-01-23T05:54:14.413Z,72.80
2019-01-23T05:56:45.070Z,72.95
2019-01-23T05:59:15.500Z,73.12
2019-01-23T06:01:45.938Z,73.27
2019-01-23T06:04:18.066Z,73.46
2019-01-23T06:06:48.407Z,73.36
2019-01-23T06:09:22.783Z,73.33
2019-01-23T06:11:53.254Z,73.11
2019-01-23T06:14:25.225Z,73.16
2019-01-23T06:16:57.274Z,73.33
2019-01-23T06:19:28.347Z,73.69
2019-01-23T06:22:01.319Z,74.03
2019-01-23T06:24:32.697Z,74.19
2019-01-23T06:27:03.106Z,74.29
2019-01-23T06:29:33.512Z,74.31
2019-01-23T06:32:06.240Z,74.29
2019-01-23T06:34:37.792Z,74.14
2019-01-23T06:37:08.566Z,74.11
2019-01-23T06:39:44.610Z,73.94
2019-01-23T06:42:15.328Z,74.03
2019-01-23T06:44:47.016Z,73.96
2019-01-23T06:47:17.643Z,73.85
2019-01-23T06:49:48.186Z,73.53
2019-01-23T06:52:20.234Z,73.22
2019-01-23T06:54:50.785Z,73.12
2019-01-23T06:57:21.533Z,73.05
2019-01-23T06:59:51.828Z,73.01
2019-01-23T07:02:22.716Z,72.23
2019-01-23T07:04:53.260Z,72.43
2019-01-23T07:07:23.872Z,72.57
2019-01-23T07:09:54.541Z,72.79
2019-01-23T07:12:25.141Z,72.79
2019-01-23T07:14:55.561Z,73.15
2019-01-23T07:17:25.938Z,73.05
2019-01-23T07:19:58.898Z,72.94
2019-01-23T07:22:30.924Z,72.80
2019-01-23T07:25:01.393Z,72.68
2019-01-23T07:27:31.881Z,72.35
2019-01-23T07:30:02.519Z,72.50
2019-01-23T07:32:34.170Z,72.45
2019-01-23T07:35:05.175Z,72.48
2019-01-23T07:37:38.237Z,71.95
2019-01-23T07:40:12.462Z,71.95
2019-01-23T07:42:44.424Z,71.70
2019-01-23T07:45:17.253Z,71.80
2019-01-23T07:47:50.711Z,71.23
2019-01-23T07:50:21.034Z,71.57
2019-01-23T07:52:53.408Z,71.36
2019-01-23T07:55:23.896Z,71.45
2019-01-23T07:57:56.157Z,71.50
2019-01-23T08:00:31.532Z,71.33
2019-01-23T08:03:01.119Z,71.28
2019-01-23T08:05:31.763Z,70.73
2019-01-23T08:08:02.482Z,70.59
2019-01-23T08:10:33.133Z,70.46
2019-01-23T08:13:03.528Z,69.95
2019-01-23T08:15:35.593Z,69.94
2019-01-23T08:18:07.184Z,69.80
2019-01-23T08:20:37.708Z,69.85
2019-01-23T08:23:08.076Z,69.75
2019-01-23T08:25:42.829Z,69.12
2019-01-23T08:28:13.257Z,69.25
2019-01-23T08:30:43.992Z,69.05
2019-01-23T08:33:14.318Z,68.26
2019-01-23T08:35:44.974Z,68.29
2019-01-23T08:38:15.704Z,67.79
2019-01-23T08:40:46.553Z,67.62
2019-01-23T08:43:18.840Z,66.83
2019-01-23T08:45:49.490Z,66.22
2019-01-23T08:48:21.104Z,65.73
2019-01-23T08:50:52.606Z,65.99
2019-01-23T08:53:23.099Z,65.45
2019-01-23T08:55:56.083Z,65.01
2019-01-23T08:58:25.671Z,63.86
2019-01-23T09:00:56.020Z,63.47
2019-01-23T09:03:28.706Z,63.44
2019-01-23T09:06:00.593Z,62.66
2019-01-23T09:08:37.452Z,62.39
2019-01-23T09:11:05.650Z,61.67
2019-01-23T09:13:36.032Z,60.65
2019-01-23T09:16:08.906Z,61.25
2019-01-23T09:18:41.335Z,60.37
2019-01-23T09:21:11.698Z,60.59
2019-01-23T09:23:42.027Z,60.36
2019-01-23T09:26:14.508Z,60.47
2019-01-23T09:28:44.925Z,60.29
2019-01-23T09:31:43.924Z,58.88
2019-01-23T09:34:39.376Z,57.93
2019-01-23T09:37:31.265Z,57.69
2019-01-23T09:40:32.810Z,57.13
2019-01-23T09:43:19.497Z,57.43
2019-01-23T09:46:25.753Z,57.05
2019-01-23T09:49:45.523Z,57.54
2019-01-23T09:52:54.216Z,58.52
2019-01-23T09:55:27.047Z,58.87
2019-01-23T09:58:00.404Z,58.51
2019-01-23T10:00:31.690Z,58.13
2019-01-23T10:03:04.127Z,58.82
2019-01-23T10:05:35.069Z,58.86
2019-01-23T10:08:07.685Z,58.61
2019-01-23T10:10:38.007Z,58.56
2019-01-23T10:13:10.182Z,57.83
2019-01-23T10:15:50.173Z,57.16
2019-01-23T10:18:20.632Z,56.34
2019-01-23T10:20:51.571Z,55.40
2019-01-23T10:23:22.024Z,55.10
2019-01-23T10:25:52.647Z,55.74
2019-01-23T10:28:23.197Z,56.80
2019-01-23T10:30:53.468Z,57.22
2019-01-23T10:33:24.447Z,57.07
2019-01-23T10:35:55.054Z,57.60
2019-01-23T10:38:25.707Z,57.70
2019-01-23T10:40:56.202Z,57.41
2019-01-23T10:43:26.960Z,57.85
2019-01-23T10:45:57.509Z,58.09
2019-01-23T10:48:28.158Z,58.29
2019-01-23T10:50:58.619Z,58.08
2019-01-23T10:53:30.475Z,58.03
2019-01-23T10:56:01.127Z,58.81
2019-01-23T10:58:32.831Z,57.88
2019-01-23T11:01:03.489Z,58.21
2019-01-23T11:03:38.406Z,57.99
2019-01-23T11:06:08.919Z,57.86
2019-01-23T11:08:42.672Z,57.61
2019-01-23T11:11:13.270Z,57.55
2019-01-23T11:13:43.630Z,56.77
2019-01-23T11:16:14.034Z,57.19
2019-01-23T11:18:46.283Z,58.15
2019-01-23T11:21:20.899Z,59.75
2019-01-23T11:23:51.249Z,59.54
2019-01-23T11:26:21.614Z,59.59
2019-01-23T11:28:54.626Z,59.18
2019-01-23T11:31:25.235Z,60.95
2019-01-23T11:33:55.964Z,60.07
2019-01-23T11:36:26.591Z,60.49
2019-01-23T11:38:58.770Z,61.51
2019-01-23T11:41:29.530Z,60.50
2019-01-23T11:44:01.419Z,60.49
2019-01-23T11:46:31.738Z,61.44
2019-01-23T11:49:02.040Z,60.75
2019-01-23T11:51:32.570Z,61.23
2019-01-23T11:54:06.418Z,60.68
2019-01-23T11:56:37.150Z,60.23
2019-01-23T11:59:09.930Z,61.00
2019-01-23T12:01:42.374Z,60.88
2019-01-23T12:04:14.402Z,60.46
2019-01-23T12:06:44.810Z,61.80
2019-01-23T12:09:15.337Z,60.75
2019-01-23T12:11:45.939Z,59.79
2019-01-23T12:14:19.622Z,58.60
2019-01-23T12:16:50.327Z,59.49
2019-01-23T12:19:20.934Z,59.36
2019-01-23T12:21:53.720Z,59.37
2019-01-23T12:24:24.783Z,59.98
2019-01-23T12:26:55.443Z,60.22
2019-01-23T12:29:28.750Z,60.88
2019-01-23T12:31:59.268Z,61.51
2019-01-23T12:34:29.616Z,61.28
2019-01-23T12:37:00.287Z,61.74
2019-01-23T12:39:36.947Z,62.17
2019-01-23T12:42:09.363Z,62.26
2019-01-23T12:44:48.473Z,62.45
2019-01-23T12:47:18.843Z,61.50
2019-01-23T12:49:49.192Z,60.20
2019-01-23T12:52:19.802Z,60.95
2019-01-23T12:54:51.866Z,60.29
2019-01-23T12:57:25.055Z,60.60
2019-01-23T12:59:55.501Z,61.05
2019-01-23T13:02:26.155Z,60.72
2019-01-23T13:04:56.622Z,60.29
2019-01-23T13:07:27.459Z,59.53
2019-01-23T13:09:57.775Z,59.75
2019-01-23T13:12:29.606Z,60.24
2019-01-23T13:15:00.314Z,59.87
2019-01-23T13:17:34.359Z,59.83
2019-01-23T13:20:06.240Z,60.30
2019-01-23T13:22:37.742Z,60.31
2019-01-23T13:25:17.623Z,59.96
2019-01-23T13:27:48.586Z,61.69
2019-01-23T13:30:20.958Z,60.44
2019-01-23T13:32:52.031Z,60.77
2019-01-23T13:35:24.914Z,58.99
2019-01-23T13:37:55.735Z,58.38
2019-01-23T13:40:34.383Z,59.06
2019-01-23T13:43:07.110Z,58.10
2019-01-23T13:45:38.009Z,58.10
2019-01-23T13:48:10.340Z,58.87
2019-01-23T13:50:45.817Z,59.51
2019-01-23T13:53:18.365Z,59.47
2019-01-23T13:55:48.694Z,59.35
2019-01-23T13:58:26.228Z,59.20
2019-01-23T14:00:56.598Z,59.92
2019-01-23T14:03:26.991Z,58.64
2019-01-23T14:05:57.991Z,58.80
2019-01-23T14:08:28.575Z,59.62
2019-01-23T14:11:02.797Z,60.72
2019-01-23T14:13:33.140Z,60.46
2019-01-23T14:16:06.317Z,60.12
2019-01-23T14:18:38.533Z,60.01
2019-01-23T14:21:08.859Z,59.89
2019-01-23T14:23:39.182Z,59.72
2019-01-23T14:26:25.234Z,59.70
2019-01-23T14:28:56.985Z,60.14
2019-01-23T14:31:30.747Z,60.61
2019-01-23T14:34:01.193Z,60.68
2019-01-23T14:36:34.194Z,61.20
2019-01-23T14:39:09.834Z,60.45
2019-01-23T14:41:42.580Z,59.74
2019-01-23T14:44:13.072Z,59.73
2019-01-23T14:46:45.054Z,60.11
2019-01-23T14:49:36.148Z,60.02
2019-01-23T14:51:53.879Z,60.34
2019-01-23T14:54:36.213Z,60.90
2019-01-23T14:56:59.199Z,61.06
2019-01-23T14:59:29.579Z,61.64
2019-01-23T15:02:02.043Z,61.92
2019-01-23T15:04:32.666Z,62.35
2019-01-23T15:07:03.712Z,62.49
2019-01-23T15:09:34.328Z,62.36
2019-01-23T15:12:08.982Z,62.96
2019-01-23T15:14:39.926Z,62.18
2019-01-23T15:17:11.737Z,62.18
2019-01-23T15:19:42.235Z,62.29
2019-01-23T15:22:12.757Z,62.14
2019-01-23T15:24:43.271Z,62.18
2019-01-23T15:27:16.882Z,61.49
2019-01-23T15:29:47.591Z,61.11
2019-01-23T15:32:18.301Z,61.14
2019-01-23T15:34:48.780Z,62.32
2019-01-23T15:37:21.599Z,62.21
2019-01-23T15:39:51.964Z,62.31
2019-01-23T15:42:22.270Z,62.87
2019-01-23T15:44:52.612Z,63.41
2019-01-23T15:47:23.000Z,62.48
2019-01-23T15:49:53.511Z,62.80
2019-01-23T15:52:23.907Z,62.74
2019-01-23T15:54:54.497Z,62.86
2019-01-23T15:57:24.846Z,63.02
2019-01-23T15:59:55.613Z,62.73
2019-01-23T16:02:26.305Z,62.27
2019-01-23T16:04:57.990Z,62.31
2019-01-23T16:07:31.732Z,62.13
2019-01-23T16:10:02.559Z,60.73
2019-01-23T16:12:37.250Z,62.21
2019-01-23T16:15:09.102Z,61.97
2019-01-23T16:17:39.878Z,61.06
2019-01-23T16:20:12.090Z,60.14
2019-01-23T16:22:44.947Z,61.83
2019-01-23T16:25:16.734Z,62.41
2019-01-23T16:27:47.240Z,62.53
2019-01-23T16:30:30.902Z,61.95
2019-01-23T16:33:01.441Z,61.30
2019-01-23T16:35:38.775Z,60.94
2019-01-23T16:38:10.066Z,61.16
2019-01-23T16:40:40.932Z,61.36
2019-01-23T16:43:17.427Z,61.52
2019-01-23T16:45:48.263Z,61.88
2019-01-23T16:48:20.167Z,61.36
2019-01-23T16:50:53.555Z,61.27
2019-01-23T16:53:24.352Z,61.38
2019-01-23T16:55:55.222Z,60.83
2019-01-23T16:58:25.800Z,61.00
2019-01-23T17:00:56.584Z,61.28
2019-01-23T17:03:27.126Z,61.36
2019-01-23T17:05:59.313Z,61.37
2019-01-23T17:08:30.016Z,61.22
2019-01-23T17:11:01.930Z,61.18
2019-01-23T17:13:32.250Z,60.89
2019-01-23T17:16:02.970Z,60.95
2019-01-23T17:18:33.416Z,61.63
2019-01-23T17:21:06.619Z,61.42
2019-01-23T17:23:38.078Z,61.02
2019-01-23T17:26:09.242Z,60.94
2019-01-23T17:28:43.053Z,60.94
2019-01-23T17:31:13.509Z,61.16
2019-01-23T17:33:44.352Z,61.16
2019-01-23T17:36:16.092Z,61.14
2019-01-23T17:38:46.985Z,61.64
2019-01-23T17:41:20.198Z,61.14
2019-01-23T17:43:50.818Z,61.32
2019-01-23T17:46:21.391Z,61.64
2019-01-23T17:48:53.689Z,61.35
2019-01-23T17:51:24.247Z,61.40
2019-01-23T17:53:56.344Z,61.38
2019-01-23T17:56:27.119Z,61.37
2019-01-23T17:59:01.127Z,61.34
2019-01-23T18:01:31.940Z,61.26
2019-01-23T18:04:02.313Z,61.24
2019-01-23T18:06:35.373Z,61.49
2019-01-23T18:09:09.807Z,61.36
2019-01-23T18:11:40.477Z,60.92
2019-01-23T18:14:10.876Z,61.07
2019-01-23T18:16:43.852Z,61.32
2019-01-23T18:19:14.711Z,61.63
2019-01-23T18:21:46.953Z,61.65
2019-01-23T18:24:20.890Z,61.58
2019-01-23T18:26:51.504Z,61.77
2019-01-23T18:29:22.057Z,61.62
2019-01-23T18:32:02.861Z,62.14
2019-01-23T18:35:06.453Z,62.07
2019-01-23T18:37:54.775Z,61.60
2019-01-23T18:41:12.622Z,61.96
2019-01-23T18:44:09.592Z,61.96
2019-01-23T18:47:21.638Z,61.55
2019-01-23T18:50:31.866Z,61.89
2019-01-23T18:53:02.476Z,61.82
2019-01-23T18:55:34.760Z,61.98
2019-01-23T18:58:06.605Z,62.24
2019-01-23T19:00:37.442Z,62.00
2019-01-23T19:03:08.484Z,62.54
2019-01-23T19:05:42.031Z,62.16
2019-01-23T19:08:15.074Z,61.52
2019-01-23T19:10:45.501Z,62.12
2019-01-23T19:13:17.625Z,61.77
2019-01-23T19:15:47.998Z,62.06
2019-01-23T19:18:18.621Z,62.00
2019-01-23T19:20:50.639Z,61.95
2019-01-23T19:23:21.080Z,61.50
2019-01-23T19:25:51.525Z,62.11
2019-01-23T19:28:22.601Z,62.30
2019-01-23T19:30:55.255Z,61.87
2019-01-23T19:33:25.868Z,61.90
2019-01-23T19:35:56.773Z,62.16
2019-01-23T19:38:28.173Z,62.14
2019-01-23T19:40:58.748Z,62.51
2019-01-23T19:43:31.260Z,62.76
2019-01-23T19:46:05.604Z,62.87
2019-01-23T19:48:36.465Z,62.87
2019-01-23T19:51:09.679Z,62.35
2019-01-23T19:53:40.632Z,62.73
2019-01-23T19:56:11.305Z,62.66
2019-01-23T19:58:42.952Z,62.99
2019-01-23T20:01:14.695Z,63.10
2019-01-23T20:03:45.388Z,62.41
2019-01-23T20:06:16.045Z,62.43
2019-01-23T20:08:50.825Z,62.41
2019-01-23T20:11:21.303Z,62.18
2019-01-23T20:13:53.341Z,62.23
2019-01-23T20:16:25.079Z,62.57
2019-01-23T20:18:57.734Z,62.66
2019-01-23T20:21:28.133Z,62.14
2019-01-23T20:24:03.890Z,62.21
2019-01-23T20:26:33.179Z,62.45
2019-01-23T20:29:03.916Z,62.91
2019-01-23T20:31:37.852Z,63.04
2019-01-23T20:34:09.990Z,62.71
2019-01-23T20:36:40.659Z,62.08
2019-01-23T20:39:12.445Z,63.20
2019-01-23T20:41:51.562Z,63.20
2019-01-23T20:44:19.154Z,62.72
2019-01-23T20:46:49.610Z,63.00
2019-01-23T20:49:30.185Z,63.13
2019-01-23T20:52:00.719Z,62.90
2019-01-23T20:54:31.067Z,63.06
2019-01-23T20:57:03.563Z,62.61
2019-01-23T20:59:34.560Z,62.77
2019-01-23T21:02:05.710Z,62.96
2019-01-23T21:04:38.123Z,63.08
2019-01-23T21:07:08.512Z,63.03
2019-01-23T21:09:41.840Z,62.38
2019-01-23T21:12:18.495Z,62.38
2019-01-23T21:14:44.877Z,63.09
2019-01-23T21:17:15.707Z,63.26
2019-01-23T21:19:49.274Z,63.08
2019-01-23T21:22:21.451Z,62.75
2019-01-23T21:24:51.833Z,62.72
2019-01-23T21:27:23.612Z,63.37
2019-01-23T21:29:57.145Z,63.20
2019-01-23T21:32:28.625Z,62.70
2019-01-23T21:34:59.039Z,62.72
2019-01-23T21:37:29.446Z,63.04
2019-01-23T21:39:59.943Z,63.24
2019-01-23T21:42:33.448Z,63.13
2019-01-23T21:45:03.998Z,63.40
2019-01-23T21:47:34.704Z,63.16
2019-01-23T21:50:07.770Z,63.34
2019-01-23T21:52:38.727Z,64.11
2019-01-23T21:55:11.321Z,63.71
2019-01-23T21:57:43.257Z,63.59
2019-01-23T22:00:27.516Z,63.64
2019-01-23T22:03:01.813Z,63.71
2019-01-23T22:05:35.946Z,63.73
2019-01-23T22:08:10.382Z,63.85
2019-01-23T22:10:40.944Z,63.97
2019-01-23T22:13:11.676Z,63.71
2019-01-23T22:15:43.605Z,63.76
2019-01-23T22:18:15.717Z,63.94
2019-01-23T22:20:46.570Z,64.30
2019-01-23T22:23:17.015Z,64.28
2019-01-23T22:25:48.719Z,63.83
2019-01-23T22:28:23.460Z,63.87
2019-01-23T22:30:54.622Z,64.01
2019-01-23T22:33:24.998Z,63.96
2019-01-23T22:35:58.556Z,63.70
2019-01-23T22:38:28.856Z,63.66
2019-01-23T22:40:59.541Z,63.94
2019-01-23T22:43:32.666Z,64.48
2019-01-23T22:46:03.194Z,64.14
2019-01-23T22:48:33.607Z,64.10
2019-01-23T22:51:04.047Z,63.95
2019-01-23T22:53:34.658Z,64.06
2019-01-23T22:56:05.619Z,63.75
2019-01-23T22:58:42.916Z,64.25
2019-01-23T23:01:26.361Z,64.22
2019-01-23T23:04:03.123Z,64.27
2019-01-23T23:06:29.858Z,64.59
2019-01-23T23:09:01.822Z,64.78
2019-01-23T23:11:35.211Z,65.71
2019-01-23T23:14:06.834Z,65.80
2019-01-23T23:16:40.726Z,65.78
2019-01-23T23:19:11.385Z,65.68
2019-01-23T23:21:43.198Z,65.83
2019-01-23T23:24:13.531Z,66.03
2019-01-23T23:26:43.873Z,66.45
2019-01-23T23:29:14.467Z,65.97
2019-01-23T23:31:46.103Z,65.32
2019-01-23T23:34:16.791Z,65.25
2019-01-23T23:36:47.642Z,65.16
2019-01-23T23:39:18.278Z,65.15
2019-01-23T23:41:48.635Z,64.93
2019-01-23T23:44:19.315Z,64.54
2019-01-23T23:46:49.693Z,64.43
2019-01-23T23:49:20.354Z,64.56
2019-01-23T23:51:50.808Z,64.52
2019-01-23T23:54:21.166Z,64.58
2019-01-23T23:56:51.521Z,64.63
2019-01-23T23:59:22.123Z,65.08
